createdAt,value
2022-10-22T00:01:28.343Z,16.14
2022-10-22T00:03:54.961Z,16.19
2022-10-22T00:06:21.613Z,16.01
2022-10-22T00:08:48.164Z,15.64
2022-10-22T00:11:17.846Z,15.76
2022-10-22T00:16:16.912Z,15.43
2022-10-22T00:18:43.475Z,15.42
2022-10-22T00:21:10.050Z,15.78
2022-10-22T00:23:36.689Z,15.94
2022-10-22T00:26:03.310Z,15.51
2022-10-22T00:28:29.931Z,15.23
2022-10-22T00:30:58.343Z,15.39
2022-10-22T00:33:25.870Z,15.47
2022-10-22T00:35:52.590Z,15.36
2022-10-22T00:38:19.199Z,15.65
2022-10-22T00:40:46.090Z,16.11
2022-10-22T00:43:14.914Z,16.14
2022-10-22T00:45:41.833Z,16.17
2022-10-22T00:48:11.656Z,16.05
2022-10-22T00:50:45.726Z,16.05
2022-10-22T00:53:45.407Z,15.95
2022-10-22T00:56:12.358Z,16.05
2022-10-22T00:58:45.515Z,15.84
2022-10-22T01:01:19.959Z,15.84
2022-10-22T01:03:46.887Z,15.69
2022-10-22T01:06:23.539Z,15.83
2022-10-22T01:09:01.793Z,15.54
2022-10-22T01:11:52.719Z,15.60
2022-10-22T01:14:29.800Z,15.65
2022-10-22T01:17:15.572Z,15.38
2022-10-22T01:19:51.201Z,15.22
2022-10-22T01:22:32.076Z,15.62
2022-10-22T01:25:05.363Z,15.65
2022-10-22T01:27:45.055Z,15.51
2022-10-22T01:30:13.951Z,15.34
2022-10-22T01:32:48.779Z,15.03
2022-10-22T01:35:19.302Z,15.08
2022-10-22T01:37:52.703Z,15.42
2022-10-22T01:40:21.711Z,15.55
2022-10-22T01:43:02.574Z,15.33
2022-10-22T01:45:33.009Z,15.30
2022-10-22T01:48:16.732Z,15.17
2022-10-22T01:50:52.303Z,15.17
2022-10-22T01:53:36.358Z,15.03
2022-10-22T01:56:36.334Z,15.33
2022-10-22T01:59:24.959Z,15.36
2022-10-22T02:02:21.848Z,15.35
2022-10-22T02:05:01.712Z,15.26
2022-10-22T02:07:36.133Z,14.91
2022-10-22T02:10:05.166Z,15.14
2022-10-22T02:12:33.749Z,14.87
2022-10-22T02:15:02.658Z,14.91
2022-10-22T02:17:32.873Z,14.38
2022-10-22T02:20:13.152Z,14.75
2022-10-22T02:22:40.236Z,15.05
2022-10-22T02:25:07.911Z,15.14
2022-10-22T02:27:51.754Z,15.12
2022-10-22T02:30:22.324Z,15.16
2022-10-22T02:33:14.078Z,15.02
2022-10-22T02:35:42.518Z,14.58
2022-10-22T02:38:10.565Z,14.91
2022-10-22T02:40:37.327Z,14.75
2022-10-22T02:43:05.814Z,14.60
2022-10-22T02:45:33.822Z,14.49
2022-10-22T02:48:01.821Z,14.55
2022-10-22T02:50:28.466Z,14.52
2022-10-22T02:52:55.036Z,14.65
2022-10-22T02:55:21.646Z,14.46
2022-10-22T02:57:48.192Z,14.65
2022-10-22T03:00:15.172Z,14.54
2022-10-22T03:02:41.775Z,14.49
2022-10-22T03:05:08.879Z,14.20
2022-10-22T03:07:35.632Z,14.45
2022-10-22T03:10:02.157Z,14.18
2022-10-22T03:12:28.701Z,14.06
2022-10-22T03:14:55.225Z,14.23
2022-10-22T03:17:21.839Z,14.61
2022-10-22T03:19:48.388Z,14.83
2022-10-22T03:22:19.602Z,15.11
2022-10-22T03:24:50.362Z,14.82
2022-10-22T03:27:20.023Z,15.07
2022-10-22T03:29:47.257Z,14.88
2022-10-22T03:32:13.805Z,14.59
2022-10-22T03:34:40.373Z,14.56
2022-10-22T03:37:07.031Z,14.48
2022-10-22T03:39:36.175Z,14.42
2022-10-22T03:42:04.660Z,14.43
2022-10-22T03:44:31.958Z,14.44
2022-10-22T03:47:01.716Z,14.45
2022-10-22T03:49:29.457Z,14.34
2022-10-22T03:51:56.046Z,14.25
2022-10-22T03:54:22.655Z,14.67
2022-10-22T03:56:49.199Z,14.39
2022-10-22T03:59:16.103Z,14.43
2022-10-22T04:01:42.662Z,14.58
2022-10-22T04:04:09.273Z,14.73
2022-10-22T04:06:35.878Z,14.71
2022-10-22T04:09:02.676Z,14.73
2022-10-22T04:11:29.292Z,14.81
2022-10-22T04:13:55.824Z,15.01
2022-10-22T04:16:25.044Z,15.21
2022-10-22T04:18:54.058Z,15.43
2022-10-22T04:21:20.702Z,15.53
2022-10-22T04:23:52.238Z,15.55
2022-10-22T04:26:19.947Z,15.61
2022-10-22T04:28:48.374Z,15.67
2022-10-22T04:31:18.479Z,15.54
2022-10-22T04:33:45.514Z,15.58
2022-10-22T04:36:17.920Z,15.42
2022-10-22T04:38:46.514Z,15.14
2022-10-22T04:41:14.915Z,15.24
2022-10-22T04:43:42.033Z,15.62
2022-10-22T04:46:09.692Z,15.58
2022-10-22T04:48:37.042Z,15.59
2022-10-22T04:51:04.554Z,15.49
2022-10-22T04:53:31.158Z,15.53
2022-10-22T04:56:13.795Z,15.52
2022-10-22T04:58:40.873Z,15.47
2022-10-22T05:01:22.794Z,15.43
2022-10-22T05:03:51.141Z,15.04
2022-10-22T05:06:18.260Z,14.89
2022-10-22T05:08:44.942Z,15.20
2022-10-22T05:11:17.733Z,15.26
2022-10-22T05:13:45.188Z,15.03
2022-10-22T05:16:12.777Z,14.89
2022-10-22T05:18:41.374Z,14.89
2022-10-22T05:21:14.042Z,14.92
2022-10-22T05:23:40.850Z,15.03
2022-10-22T05:26:09.278Z,14.70
2022-10-22T05:28:36.176Z,14.81
2022-10-22T05:31:04.552Z,14.98
2022-10-22T05:33:32.790Z,15.13
2022-10-22T05:36:00.930Z,15.36
2022-10-22T05:38:27.533Z,15.24
2022-10-22T05:41:09.202Z,15.15
2022-10-22T05:43:36.188Z,15.16
2022-10-22T05:46:09.874Z,15.14
2022-10-22T05:48:36.784Z,15.30
2022-10-22T05:51:05.571Z,15.34
2022-10-22T05:53:36.599Z,15.21
2022-10-22T05:56:05.640Z,15.32
2022-10-22T05:58:32.509Z,15.39
2022-10-22T06:01:23.187Z,15.43
2022-10-22T06:03:49.924Z,15.20
2022-10-22T06:06:25.366Z,15.02
2022-10-22T06:08:53.456Z,15.19
2022-10-22T06:11:21.586Z,15.28
2022-10-22T06:13:49.603Z,15.33
2022-10-22T06:16:16.254Z,15.19
2022-10-22T06:18:43.056Z,14.96
2022-10-22T06:21:12.348Z,14.78
2022-10-22T06:23:40.214Z,14.92
2022-10-22T06:26:07.749Z,14.91
2022-10-22T06:28:34.984Z,14.98
2022-10-22T06:31:02.734Z,14.83
2022-10-22T06:33:31.312Z,14.63
2022-10-22T06:36:08.559Z,14.72
2022-10-22T06:38:35.172Z,14.51
2022-10-22T06:41:10.315Z,14.42
2022-10-22T06:43:36.866Z,14.46
2022-10-22T06:46:07.290Z,14.60
2022-10-22T06:48:33.825Z,15.02
2022-10-22T06:51:05.506Z,15.28
2022-10-22T06:53:32.893Z,15.37
2022-10-22T06:55:59.504Z,15.42
2022-10-22T06:58:26.066Z,15.32
2022-10-22T07:01:20.186Z,15.24
2022-10-22T07:03:47.177Z,15.15
2022-10-22T07:06:14.929Z,15.17
2022-10-22T07:08:42.261Z,15.26
2022-10-22T07:11:21.090Z,15.22
2022-10-22T07:13:49.108Z,15.28
2022-10-22T07:16:18.216Z,15.15
2022-10-22T07:18:45.964Z,15.42
2022-10-22T07:21:15.268Z,15.48
2022-10-22T07:23:41.837Z,15.49
2022-10-22T07:26:09.878Z,15.54
2022-10-22T07:28:39.715Z,15.39
2022-10-22T07:31:07.709Z,15.51
2022-10-22T07:33:34.387Z,15.45
2022-10-22T07:36:03.587Z,15.14
2022-10-22T07:38:31.470Z,15.29
2022-10-22T07:40:58.980Z,15.45
2022-10-22T07:43:25.906Z,15.36
2022-10-22T07:45:52.947Z,15.35
2022-10-22T07:48:19.650Z,15.32
2022-10-22T07:50:46.196Z,15.33
2022-10-22T07:53:12.755Z,15.34
2022-10-22T07:55:39.312Z,15.36
2022-10-22T07:58:05.984Z,15.35
2022-10-22T08:00:32.678Z,15.40
2022-10-22T08:02:59.243Z,15.44
2022-10-22T08:05:25.887Z,15.53
2022-10-22T08:07:52.479Z,15.45
2022-10-22T08:10:19.023Z,15.55
2022-10-22T08:12:45.552Z,15.62
2022-10-22T08:15:12.116Z,15.67
2022-10-22T08:17:39.033Z,15.65
2022-10-22T08:20:06.443Z,15.67
2022-10-22T08:22:32.962Z,15.60
2022-10-22T08:25:00.394Z,15.74
2022-10-22T08:27:27.187Z,15.74
2022-10-22T08:29:53.704Z,15.81
2022-10-22T08:32:21.842Z,15.75
2022-10-22T08:34:48.581Z,15.91
2022-10-22T08:37:17.011Z,15.87
2022-10-22T08:39:44.385Z,16.16
2022-10-22T08:42:43.795Z,16.11
2022-10-22T08:45:28.701Z,16.02
2022-10-22T08:48:27.077Z,15.90
2022-10-22T08:50:57.059Z,16.09
2022-10-22T08:53:53.789Z,16.04
2022-10-22T08:56:23.227Z,16.16
2022-10-22T08:58:58.579Z,16.21
2022-10-22T09:01:39.455Z,16.04
2022-10-22T09:04:19.479Z,16.21
2022-10-22T09:06:49.531Z,16.44
2022-10-22T09:09:20.356Z,16.44
2022-10-22T09:11:50.582Z,16.59
2022-10-22T09:14:23.493Z,16.53
2022-10-22T09:16:55.661Z,16.58
2022-10-22T09:19:35.675Z,16.43
2022-10-22T09:22:39.986Z,16.43
2022-10-22T09:25:21.895Z,16.55
2022-10-22T09:27:50.308Z,16.83
2022-10-22T09:30:24.106Z,17.03
2022-10-22T09:33:15.545Z,17.09
2022-10-22T09:35:55.394Z,17.06
2022-10-22T09:38:40.314Z,17.04
2022-10-22T09:41:06.995Z,17.26
2022-10-22T09:43:34.947Z,17.26
2022-10-22T09:46:08.410Z,17.25
2022-10-22T09:48:41.871Z,16.87
2022-10-22T09:51:22.492Z,16.94
2022-10-22T09:54:01.556Z,16.98
2022-10-22T09:56:37.800Z,17.03
2022-10-22T09:59:04.380Z,17.17
2022-10-22T10:01:36.230Z,17.14
2022-10-22T10:04:09.660Z,17.31
2022-10-22T10:06:40.210Z,17.29
2022-10-22T10:09:19.007Z,17.22
2022-10-22T10:11:56.983Z,17.25
2022-10-22T10:14:56.717Z,16.95
2022-10-22T10:17:47.935Z,17.28
2022-10-22T10:20:14.794Z,17.17
2022-10-22T10:22:53.479Z,17.32
2022-10-22T10:25:26.327Z,17.21
2022-10-22T10:28:01.543Z,17.47
2022-10-22T10:30:28.118Z,17.68
2022-10-22T10:33:29.082Z,17.95
2022-10-22T10:36:02.419Z,17.91
2022-10-22T10:38:41.930Z,18.03
2022-10-22T10:41:32.708Z,17.97
2022-10-22T10:44:09.592Z,18.08
2022-10-22T10:46:49.926Z,18.11
2022-10-22T10:49:35.026Z,18.23
2022-10-22T10:52:10.498Z,18.25
2022-10-22T10:54:44.548Z,17.94
2022-10-22T10:57:39.277Z,17.97
2022-10-22T11:00:09.794Z,18.10
2022-10-22T11:03:08.859Z,17.90
2022-10-22T11:05:55.547Z,18.12
2022-10-22T11:08:30.567Z,18.02
2022-10-22T11:11:12.803Z,18.16
2022-10-22T11:13:48.145Z,18.10
2022-10-22T11:16:26.359Z,18.06
2022-10-22T11:19:02.173Z,17.91
2022-10-22T11:21:41.229Z,17.87
2022-10-22T11:24:07.767Z,18.11
2022-10-22T11:26:45.184Z,18.14
2022-10-22T11:29:16.230Z,17.97
2022-10-22T11:31:44.293Z,18.24
2022-10-22T11:34:33.841Z,18.60
2022-10-22T11:37:05.352Z,18.22
2022-10-22T11:39:40.657Z,18.10
2022-10-22T11:42:11.365Z,18.40
2022-10-22T11:45:13.127Z,18.64
2022-10-22T11:48:10.514Z,18.63
2022-10-22T11:50:50.890Z,18.38
2022-10-22T11:53:21.563Z,18.36
2022-10-22T11:55:51.722Z,18.32
2022-10-22T11:58:42.014Z,18.39
2022-10-22T12:01:08.533Z,18.31
2022-10-22T12:03:34.999Z,18.45
2022-10-22T12:06:04.961Z,18.49
2022-10-22T12:08:34.073Z,18.42
2022-10-22T12:11:00.628Z,18.60
2022-10-22T12:13:31.774Z,19.06
2022-10-22T12:16:01.513Z,19.16
2022-10-22T12:18:34.446Z,19.05
2022-10-22T12:21:01.001Z,19.36
2022-10-22T12:23:34.165Z,18.77
2022-10-22T12:26:00.836Z,18.67
2022-10-22T12:28:27.486Z,18.82
2022-10-22T12:30:54.113Z,19.07
2022-10-22T12:33:25.544Z,18.99
2022-10-22T12:35:57.449Z,18.75
2022-10-22T12:38:25.677Z,18.83
2022-10-22T12:40:55.543Z,19.05
2022-10-22T12:43:30.269Z,18.94
2022-10-22T12:45:58.910Z,19.06
2022-10-22T12:48:30.611Z,19.38
2022-10-22T12:51:00.442Z,19.37
2022-10-22T12:53:39.273Z,19.12
2022-10-22T12:56:11.644Z,19.37
2022-10-22T12:58:52.698Z,19.50
2022-10-22T13:01:19.379Z,19.04
2022-10-22T13:03:52.083Z,19.16
2022-10-22T13:06:18.559Z,19.25
2022-10-22T13:08:56.109Z,19.37
2022-10-22T13:11:22.707Z,19.39
2022-10-22T13:13:49.260Z,19.35
2022-10-22T13:16:25.701Z,19.60
2022-10-22T13:18:53.662Z,19.55
2022-10-22T13:21:34.941Z,19.59
2022-10-22T13:24:19.410Z,19.89
2022-10-22T13:26:49.529Z,19.78
2022-10-22T13:29:19.278Z,19.99
2022-10-22T13:31:51.883Z,19.96
2022-10-22T13:34:21.076Z,19.81
2022-10-22T13:36:48.746Z,19.50
2022-10-22T13:39:21.032Z,19.62
2022-10-22T13:41:50.602Z,19.53
2022-10-22T13:44:18.520Z,19.49
2022-10-22T13:46:46.957Z,19.56
2022-10-22T13:49:19.282Z,19.88
2022-10-22T13:51:46.678Z,20.16
2022-10-22T13:54:19.585Z,19.72
2022-10-22T13:56:46.421Z,19.91
2022-10-22T13:59:12.975Z,19.97
2022-10-22T14:01:39.772Z,20.14
2022-10-22T14:04:10.323Z,20.15
2022-10-22T14:09:14.069Z,20.09
2022-10-22T14:11:40.729Z,20.28
2022-10-22T14:14:09.067Z,20.29
2022-10-22T14:16:37.383Z,20.50
2022-10-22T14:19:07.199Z,20.46
2022-10-22T14:21:37.098Z,20.55
2022-10-22T14:24:06.029Z,20.70
2022-10-22T14:26:35.135Z,20.84
2022-10-22T14:29:11.052Z,20.44
2022-10-22T14:34:14.592Z,21.00
2022-10-22T14:36:43.562Z,21.06
2022-10-22T14:39:10.528Z,21.26
2022-10-22T14:41:37.376Z,21.39
2022-10-22T14:44:04.085Z,21.39
2022-10-22T14:46:30.844Z,21.46
2022-10-22T14:48:57.471Z,21.64
2022-10-22T14:51:24.154Z,21.68
2022-10-22T14:53:50.870Z,21.76
2022-10-22T14:56:21.413Z,21.69
2022-10-22T14:58:49.580Z,21.94
2022-10-22T15:01:16.501Z,22.11
2022-10-22T15:03:43.131Z,22.21
2022-10-22T15:06:09.780Z,22.30
2022-10-22T15:08:36.431Z,22.27
2022-10-22T15:11:10.507Z,22.28
2022-10-22T15:13:37.665Z,22.50
2022-10-22T15:16:09.643Z,22.63
2022-10-22T15:18:36.261Z,22.55
2022-10-22T15:21:06.468Z,22.70
2022-10-22T15:23:33.632Z,22.69
2022-10-22T15:26:00.370Z,22.49
2022-10-22T15:28:26.921Z,22.52
2022-10-22T15:31:00.504Z,22.35
2022-10-22T15:33:28.442Z,22.25
2022-10-22T15:35:55.986Z,22.12
2022-10-22T15:41:05.842Z,21.65
2022-10-22T15:43:33.388Z,21.41
2022-10-22T15:46:10.287Z,21.41
2022-10-22T15:48:36.882Z,21.34
2022-10-22T15:51:09.413Z,20.95
2022-10-22T15:53:36.135Z,20.86
2022-10-22T15:56:02.746Z,20.63
2022-10-22T15:58:29.355Z,20.44
2022-10-22T16:00:55.956Z,19.97
2022-10-22T16:03:22.721Z,19.78
2022-10-22T16:05:57.187Z,19.81
2022-10-22T16:08:23.739Z,19.26
2022-10-22T16:10:50.411Z,19.36
2022-10-22T16:13:16.993Z,19.13
2022-10-22T16:15:43.598Z,18.98
2022-10-22T16:18:10.241Z,19.15
2022-10-22T16:20:39.647Z,19.23
2022-10-22T16:23:06.227Z,19.38
2022-10-22T16:25:42.204Z,19.45
2022-10-22T16:28:10.829Z,19.21
2022-10-22T16:30:38.370Z,18.87
2022-10-22T16:33:06.586Z,19.28
2022-10-22T16:35:33.167Z,19.14
2022-10-22T16:37:59.740Z,19.17
2022-10-22T16:40:26.318Z,18.49
2022-10-22T16:42:53.072Z,18.60
2022-10-22T16:45:19.676Z,18.69
2022-10-22T16:47:46.960Z,18.56
2022-10-22T16:50:13.513Z,17.87
2022-10-22T16:52:40.039Z,17.96
2022-10-22T16:55:06.922Z,18.24
2022-10-22T16:57:33.966Z,18.29
2022-10-22T17:00:00.485Z,18.37
2022-10-22T17:02:27.059Z,18.17
2022-10-22T17:04:53.604Z,18.08
2022-10-22T17:07:20.163Z,17.91
2022-10-22T17:09:46.718Z,18.04
2022-10-22T17:12:13.295Z,17.81
2022-10-22T17:14:39.975Z,17.80
2022-10-22T17:17:06.549Z,18.12
2022-10-22T17:19:34.179Z,17.78
2022-10-22T17:22:00.735Z,17.63
2022-10-22T17:24:27.255Z,18.01
2022-10-22T17:26:53.832Z,18.10
2022-10-22T17:29:21.920Z,17.95
2022-10-22T17:31:50.098Z,17.64
2022-10-22T17:34:17.428Z,17.80
2022-10-22T17:36:44.408Z,17.89
2022-10-22T17:39:13.388Z,17.65
2022-10-22T17:41:39.958Z,18.05
2022-10-22T17:44:09.042Z,17.90
2022-10-22T17:46:36.107Z,17.84
2022-10-22T17:49:07.679Z,17.79
2022-10-22T17:51:34.222Z,17.97
2022-10-22T17:54:01.718Z,17.64
2022-10-22T17:56:30.327Z,17.62
2022-10-22T17:58:56.942Z,17.62
2022-10-22T18:01:29.473Z,17.75
2022-10-22T18:04:01.045Z,17.90
2022-10-22T18:06:28.444Z,17.82
2022-10-22T18:08:54.981Z,17.69
2022-10-22T18:11:23.787Z,17.74
2022-10-22T18:13:52.041Z,17.55
2022-10-22T18:16:19.630Z,17.51
2022-10-22T18:18:51.527Z,17.51
2022-10-22T18:21:18.452Z,17.62
2022-10-22T18:23:46.221Z,17.47
2022-10-22T18:26:13.585Z,17.51
2022-10-22T18:28:40.168Z,17.59
2022-10-22T18:31:08.516Z,17.56
2022-10-22T18:33:36.936Z,17.61
2022-10-22T18:36:09.347Z,17.50
2022-10-22T18:38:38.114Z,17.44
2022-10-22T18:41:09.566Z,17.44
2022-10-22T18:43:37.073Z,17.47
2022-10-22T18:46:06.364Z,17.35
2022-10-22T18:48:36.851Z,17.61
2022-10-22T18:51:10.035Z,17.75
2022-10-22T18:53:37.746Z,17.49
2022-10-22T18:56:06.575Z,17.50
2022-10-22T18:58:40.725Z,17.62
2022-10-22T19:01:12.356Z,17.47
2022-10-22T19:03:38.919Z,17.54
2022-10-22T19:06:05.692Z,17.53
2022-10-22T19:08:34.329Z,17.63
2022-10-22T19:11:00.900Z,17.60
2022-10-22T19:13:28.466Z,17.56
2022-10-22T19:16:01.387Z,17.63
2022-10-22T19:18:27.895Z,17.47
2022-10-22T19:20:59.175Z,17.54
2022-10-22T19:23:25.652Z,17.40
2022-10-22T19:26:12.508Z,17.43
2022-10-22T19:28:39.799Z,17.39
2022-10-22T19:31:12.255Z,17.41
2022-10-22T19:33:39.833Z,17.36
2022-10-22T19:36:11.900Z,17.37
2022-10-22T19:38:40.321Z,17.17
2022-10-22T19:41:08.168Z,17.14
2022-10-22T19:43:34.797Z,17.15
2022-10-22T19:46:01.600Z,17.31
2022-10-22T19:48:29.664Z,17.26
2022-10-22T19:51:04.806Z,17.14
2022-10-22T19:53:32.603Z,17.31
2022-10-22T19:56:00.324Z,17.48
2022-10-22T19:58:28.309Z,16.96
2022-10-22T20:00:54.942Z,16.74
2022-10-22T20:03:23.006Z,17.01
2022-10-22T20:05:52.626Z,17.39
2022-10-22T20:08:19.213Z,17.15
2022-10-22T20:10:48.681Z,17.19
2022-10-22T20:13:15.291Z,17.24
2022-10-22T20:15:41.890Z,17.11
2022-10-22T20:18:08.393Z,17.23
2022-10-22T20:20:38.069Z,16.97
2022-10-22T20:23:04.694Z,17.35
2022-10-22T20:25:31.258Z,16.90
2022-10-22T20:27:57.818Z,17.12
2022-10-22T20:30:24.397Z,16.95
2022-10-22T20:32:50.997Z,16.88
2022-10-22T20:35:17.565Z,16.67
2022-10-22T20:37:44.140Z,16.59
2022-10-22T20:40:11.099Z,16.61
2022-10-22T20:42:37.909Z,16.60
2022-10-22T20:45:05.049Z,16.48
2022-10-22T20:47:44.322Z,16.35
2022-10-22T20:50:18.920Z,16.44
2022-10-22T20:52:45.458Z,16.82
2022-10-22T20:55:13.634Z,16.90
2022-10-22T20:57:41.263Z,17.00
2022-10-22T21:00:08.497Z,16.94
2022-10-22T21:02:36.046Z,16.90
2022-10-22T21:05:02.582Z,16.39
2022-10-22T21:07:29.144Z,16.42
2022-10-22T21:09:55.722Z,16.56
2022-10-22T21:12:22.276Z,16.55
2022-10-22T21:14:48.857Z,16.54
2022-10-22T21:17:15.494Z,16.85
2022-10-22T21:19:42.026Z,16.72
2022-10-22T21:22:08.562Z,16.75
2022-10-22T21:24:35.078Z,16.81
2022-10-22T21:27:03.899Z,16.76
2022-10-22T21:29:30.444Z,16.94
2022-10-22T21:31:58.222Z,16.86
2022-10-22T21:34:25.315Z,16.85
2022-10-22T21:36:52.794Z,16.69
2022-10-22T21:39:19.323Z,16.70
2022-10-22T21:41:45.881Z,16.72
2022-10-22T21:44:12.436Z,16.84
2022-10-22T21:46:39.041Z,16.56
2022-10-22T21:49:05.625Z,16.60
2022-10-22T21:51:35.091Z,16.36
2022-10-22T21:54:01.830Z,16.50
2022-10-22T21:56:33.555Z,16.48
2022-10-22T21:59:01.749Z,16.35
2022-10-22T22:01:28.617Z,16.33
2022-10-22T22:03:55.356Z,16.35
2022-10-22T22:06:24.040Z,16.52
2022-10-22T22:08:52.926Z,16.54
2022-10-22T22:11:22.502Z,16.56
2022-10-22T22:13:49.117Z,16.52
2022-10-22T22:16:21.233Z,16.54
2022-10-22T22:18:50.572Z,16.30
2022-10-22T22:21:19.343Z,16.15
2022-10-22T22:23:47.779Z,16.40
2022-10-22T22:26:17.119Z,16.64
2022-10-22T22:28:43.732Z,16.44
2022-10-22T22:31:16.624Z,16.58
2022-10-22T22:33:43.406Z,16.32
2022-10-22T22:36:10.894Z,16.45
2022-10-22T22:38:38.132Z,16.40
2022-10-22T22:41:05.558Z,16.47
2022-10-22T22:43:32.481Z,16.45
2022-10-22T22:46:01.059Z,16.59
2022-10-22T22:48:28.709Z,16.61
2022-10-22T22:50:55.503Z,16.46
2022-10-22T22:53:22.146Z,16.44
2022-10-22T22:55:49.217Z,16.60
2022-10-22T22:58:16.103Z,16.60
2022-10-22T23:00:42.839Z,16.76
2022-10-22T23:03:09.481Z,16.35
2022-10-22T23:05:37.599Z,16.40
2022-10-22T23:08:04.334Z,16.44
2022-10-22T23:10:30.892Z,16.55
2022-10-22T23:12:57.434Z,16.16
2022-10-22T23:15:23.963Z,16.06
2022-10-22T23:17:50.639Z,15.77
2022-10-22T23:20:17.184Z,16.01
2022-10-22T23:22:43.852Z,16.07
2022-10-22T23:25:10.632Z,15.78
2022-10-22T23:27:37.140Z,16.23
2022-10-22T23:30:04.159Z,16.09
2022-10-22T23:32:30.703Z,16.26
2022-10-22T23:34:57.692Z,16.15
2022-10-22T23:37:24.321Z,15.73
2022-10-22T23:39:50.918Z,15.77
2022-10-22T23:42:17.496Z,16.14
2022-10-22T23:44:44.156Z,16.00
2022-10-22T23:47:10.807Z,15.68
2022-10-22T23:49:37.352Z,15.48
2022-10-22T23:52:03.990Z,15.55
2022-10-22T23:54:30.587Z,15.81
2022-10-22T23:56:57.129Z,15.55
2022-10-22T23:59:23.637Z,15.95
